Kupino, Russia
Current Conditions -  °F | °C
As of 5:00 AM on Thursday 23 Oct 2014 (Local Time) from UASP Reporting Station
Clear Clear  
Wind Chill: 24°   Ceiling: Unl
Heat Index: 30°   Visibility: 6mi
Dew Point: 25°   Wind: 7mph
Humidity: 80%   Direction: 140°SE
Pressure: 29.91"   Gusts: NA
Location:  54.36°N, 77.28°E
Report Text: UASP 222200Z 14003MPS CAVOK M01/M04 Q1013 R21/290265 NOSIG RMKQFE749/0999
Loading
Personal Weather Stations






























Interactive Weather Map
Tropical Storm Tracking
New forecast layout! Learn more

10-Day Weather Forecast

Advertisements
Track Severe Weather on mobile